createdAt,value
2023-04-23T00:06:40.371Z,99143.48
2023-04-23T00:16:47.127Z,99138.86
2023-04-23T00:26:53.140Z,99135.16
2023-04-23T00:36:58.868Z,99135.54
2023-04-23T00:47:05.678Z,99126.61
2023-04-23T00:57:11.788Z,99121.03
2023-04-23T01:07:17.680Z,99117.09
2023-04-23T01:17:24.114Z,99118.27
2023-04-23T01:27:30.797Z,99122.09
2023-04-23T01:37:39.297Z,99120.19
2023-04-23T01:47:45.341Z,99115.02
2023-04-23T01:57:51.272Z,99109.59
2023-04-23T02:07:57.411Z,99103.04
2023-04-23T02:18:03.197Z,99103.76
2023-04-23T02:28:09.140Z,99097.23
2023-04-23T02:38:15.004Z,99092.32
2023-04-23T02:48:21.646Z,99084.44
2023-04-23T02:58:27.272Z,99081.66
2023-04-23T03:08:32.976Z,99079.90
2023-04-23T03:18:38.713Z,99088.06
2023-04-23T03:28:44.439Z,99087.60
2023-04-23T03:38:50.253Z,99085.20
2023-04-23T03:48:55.815Z,99079.53
2023-04-23T03:59:01.719Z,99074.75
2023-04-23T04:09:08.567Z,99071.08
2023-04-23T04:19:14.541Z,99069.29
2023-04-23T04:29:21.468Z,99074.08
2023-04-23T04:39:27.213Z,99070.73
2023-04-23T04:49:33.071Z,99066.43
2023-04-23T04:59:38.857Z,99070.95
2023-04-23T05:09:45.304Z,99069.84
2023-04-23T05:19:51.749Z,99060.79
2023-04-23T05:29:57.551Z,99053.30
2023-04-23T05:40:06.601Z,99046.23
2023-04-23T05:50:13.467Z,99046.58
2023-04-23T06:00:19.800Z,99043.70
2023-04-23T06:10:25.582Z,99039.46
2023-04-23T06:20:32.216Z,99032.56
2023-04-23T06:30:37.989Z,99032.32
2023-04-23T06:40:44.024Z,99035.80
2023-04-23T06:50:49.732Z,99034.27
2023-04-23T07:00:55.666Z,99025.73
2023-04-23T07:11:01.517Z,99018.12
2023-04-23T07:21:07.316Z,99011.02
2023-04-23T07:31:13.102Z,99007.38
2023-04-23T07:41:18.942Z,98999.23
2023-04-23T07:51:26.786Z,98989.80
2023-04-23T08:01:33.319Z,98984.52
2023-04-23T08:11:39.192Z,98978.30
2023-04-23T08:21:44.959Z,98978.09
2023-04-23T08:31:50.784Z,98971.02
2023-04-23T08:41:57.247Z,98966.95
2023-04-23T08:52:11.696Z,98963.34
2023-04-23T09:02:19.543Z,98956.34
2023-04-23T09:12:25.615Z,98948.97
2023-04-23T09:22:47.582Z,98938.04
2023-04-23T09:32:55.354Z,98924.79
2023-04-23T09:43:04.753Z,98923.01
2023-04-23T09:53:11.471Z,98908.80
2023-04-23T10:03:17.274Z,98899.70
2023-04-23T10:13:23.221Z,98887.05
2023-04-23T10:23:29.989Z,98873.36
2023-04-23T10:33:49.459Z,98860.58
2023-04-23T10:44:02.357Z,98855.45
2023-04-23T10:54:09.972Z,98844.85
2023-04-23T11:04:26.368Z,98840.52
2023-04-23T11:14:43.872Z,98831.98
2023-04-23T11:24:50.975Z,98823.85
2023-04-23T11:34:59.088Z,98818.42
2023-04-23T11:45:06.186Z,98808.83
2023-04-23T11:55:13.001Z,98805.91
2023-04-23T12:05:20.492Z,98795.14
2023-04-23T12:15:24.656Z,98794.20
2023-04-23T12:25:31.039Z,98783.92
2023-04-23T12:35:44.818Z,98770.93
2023-04-23T12:45:52.066Z,98769.62
2023-04-23T12:55:57.788Z,98760.30
2023-04-23T13:06:03.462Z,98753.64
2023-04-23T13:16:09.674Z,98742.98
2023-04-23T13:26:15.703Z,98726.53
2023-04-23T13:36:22.213Z,98727.98
2023-04-23T13:46:27.997Z,98717.29
2023-04-23T13:56:34.850Z,98702.48
2023-04-23T14:06:40.495Z,98698.85
2023-04-23T14:16:46.244Z,98686.42
2023-04-23T14:26:51.940Z,98683.39
2023-04-23T14:36:57.678Z,98679.80
2023-04-23T14:47:03.966Z,98670.00
2023-04-23T14:57:09.590Z,98663.90
2023-04-23T15:07:15.378Z,98659.65
2023-04-23T15:17:21.477Z,98653.40
2023-04-23T15:27:27.596Z,98646.73
2023-04-23T15:37:33.496Z,98641.75
2023-04-23T15:47:40.053Z,98640.14
2023-04-23T15:57:46.557Z,98634.09
2023-04-23T16:07:52.717Z,98626.77
2023-04-23T16:18:00.259Z,98624.96
2023-04-23T16:28:05.071Z,98620.31
2023-04-23T16:38:11.396Z,98617.25
2023-04-23T16:48:19.871Z,98621.29
2023-04-23T16:58:25.714Z,98620.16
2023-04-23T17:08:31.468Z,98625.86
2023-04-23T17:18:37.479Z,98637.70
2023-04-23T17:28:43.503Z,98655.23
2023-04-23T17:38:49.288Z,98658.71
2023-04-23T17:48:55.166Z,98643.70
2023-04-23T17:59:01.020Z,98632.57
2023-04-23T18:09:06.871Z,98647.72
2023-04-23T18:19:13.332Z,98663.48
2023-04-23T18:29:19.944Z,98671.75
2023-04-23T18:39:26.942Z,98677.79
2023-04-23T18:49:45.791Z,98690.02
2023-04-23T18:59:50.068Z,98700.34
2023-04-23T19:09:56.177Z,98704.94
2023-04-23T19:20:02.025Z,98702.38
2023-04-23T19:30:10.472Z,98705.29
2023-04-23T19:40:16.648Z,98706.13
2023-04-23T19:50:23.705Z,98702.56
2023-04-23T20:00:31.444Z,98705.61
2023-04-23T20:10:37.228Z,98703.52
2023-04-23T20:20:43.130Z,98703.40
2023-04-23T20:30:48.887Z,98695.05
2023-04-23T20:40:54.605Z,98690.45
2023-04-23T20:51:00.896Z,98693.63
2023-04-23T21:01:08.063Z,98685.17
2023-04-23T21:11:17.731Z,98679.25
2023-04-23T21:21:28.053Z,98673.85
2023-04-23T21:31:43.680Z,98667.23
2023-04-23T21:41:50.263Z,98669.06
2023-04-23T21:51:56.091Z,98664.12
2023-04-23T22:02:01.855Z,98663.40
2023-04-23T22:12:08.276Z,98660.68
2023-04-23T22:22:14.078Z,98660.10
2023-04-23T22:32:19.814Z,98656.77
2023-04-23T22:42:25.561Z,98648.49
2023-04-23T22:52:31.614Z,98644.81
2023-04-23T23:02:37.426Z,98637.20
2023-04-23T23:12:43.211Z,98626.64
2023-04-23T23:22:49.027Z,98618.67
2023-04-23T23:32:54.802Z,98610.16
2023-04-23T23:43:00.532Z,98603.31
2023-04-23T23:53:06.221Z,98594.40
